sensor_id;sensor_type;location;lat;lon;timestamp;pressure;altitude;pressure_sealevel;temperature;humidity
40946;BME280;55635;50.264;11.918;2023-03-23T00:02:04;94935.56;;;14.07;55.04
40946;BME280;55635;50.264;11.918;2023-03-23T00:04:45;94933.50;;;14.09;54.79
40946;BME280;55635;50.264;11.918;2023-03-23T00:07:30;94929.50;;;14.18;54.93
40946;BME280;55635;50.264;11.918;2023-03-23T00:10:11;94925.84;;;14.31;55.84
40946;BME280;55635;50.264;11.918;2023-03-23T00:12:52;94917.31;;;14.22;55.85
40946;BME280;55635;50.264;11.918;2023-03-23T00:15:33;94933.13;;;14.05;55.81
40946;BME280;55635;50.264;11.918;2023-03-23T00:18:16;94926.53;;;14.08;56.09
40946;BME280;55635;50.264;11.918;2023-03-23T00:21:01;94916.75;;;14.20;55.90
40946;BME280;55635;50.264;11.918;2023-03-23T00:23:44;94919.84;;;14.17;55.78
40946;BME280;55635;50.264;11.918;2023-03-23T00:26:25;94910.91;;;14.11;56.28
40946;BME280;55635;50.264;11.918;2023-03-23T00:29:17;94918.03;;;13.99;56.51
40946;BME280;55635;50.264;11.918;2023-03-23T00:32:03;94914.84;;;13.54;57.01
40946;BME280;55635;50.264;11.918;2023-03-23T00:34:47;94906.25;;;13.71;57.07
40946;BME280;55635;50.264;11.918;2023-03-23T00:37:30;94902.25;;;13.80;57.61
40946;BME280;55635;50.264;11.918;2023-03-23T00:40:11;94903.91;;;13.81;56.94
40946;BME280;55635;50.264;11.918;2023-03-23T00:42:53;94900.19;;;14.00;56.29
40946;BME280;55635;50.264;11.918;2023-03-23T00:45:33;94895.72;;;14.12;56.16
40946;BME280;55635;50.264;11.918;2023-03-23T00:48:15;94884.78;;;14.02;56.27
40946;BME280;55635;50.264;11.918;2023-03-23T00:50:56;94871.50;;;14.13;56.93
40946;BME280;55635;50.264;11.918;2023-03-23T00:53:40;94881.09;;;14.03;56.55
40946;BME280;55635;50.264;11.918;2023-03-23T00:56:21;94870.56;;;14.08;56.53
40946;BME280;55635;50.264;11.918;2023-03-23T00:59:04;94869.22;;;13.99;58.65
40946;BME280;55635;50.264;11.918;2023-03-23T01:01:46;94866.63;;;14.10;57.19
40946;BME280;55635;50.264;11.918;2023-03-23T01:04:28;94865.25;;;14.19;57.57
40946;BME280;55635;50.264;11.918;2023-03-23T01:07:09;94853.06;;;14.12;57.09
40946;BME280;55635;50.264;11.918;2023-03-23T01:09:53;94860.53;;;14.22;57.03
40946;BME280;55635;50.264;11.918;2023-03-23T01:12:34;94836.34;;;14.05;56.94
40946;BME280;55635;50.264;11.918;2023-03-23T01:15:17;94850.22;;;14.25;56.40
40946;BME280;55635;50.264;11.918;2023-03-23T01:17:58;94853.97;;;14.06;56.93
40946;BME280;55635;50.264;11.918;2023-03-23T01:20:39;94839.91;;;14.29;56.35
40946;BME280;55635;50.264;11.918;2023-03-23T01:23:22;94852.13;;;14.06;56.60
40946;BME280;55635;50.264;11.918;2023-03-23T01:26:15;94842.94;;;14.02;56.86
40946;BME280;55635;50.264;11.918;2023-03-23T01:28:56;94845.91;;;13.94;57.41
40946;BME280;55635;50.264;11.918;2023-03-23T01:31:37;94848.50;;;13.83;58.06
40946;BME280;55635;50.264;11.918;2023-03-23T01:34:20;94838.69;;;13.83;58.89
40946;BME280;55635;50.264;11.918;2023-03-23T01:37:01;94837.16;;;13.76;58.89
40946;BME280;55635;50.264;11.918;2023-03-23T01:39:42;94829.38;;;13.56;59.46
40946;BME280;55635;50.264;11.918;2023-03-23T01:42:33;94831.44;;;13.72;59.57
40946;BME280;55635;50.264;11.918;2023-03-23T01:48:17;94830.84;;;13.52;60.79
40946;BME280;55635;50.264;11.918;2023-03-23T01:51:06;94832.72;;;13.51;60.35
40946;BME280;55635;50.264;11.918;2023-03-23T01:53:58;94833.31;;;13.53;59.86
40946;BME280;55635;50.264;11.918;2023-03-23T01:56:47;94836.03;;;13.47;60.89
40946;BME280;55635;50.264;11.918;2023-03-23T01:59:30;94830.84;;;13.52;60.17
40946;BME280;55635;50.264;11.918;2023-03-23T02:02:33;94838.25;;;13.50;60.60
40946;BME280;55635;50.264;11.918;2023-03-23T02:05:43;94829.16;;;13.57;60.42
40946;BME280;55635;50.264;11.918;2023-03-23T02:08:43;94826.72;;;13.56;59.98
40946;BME280;55635;50.264;11.918;2023-03-23T02:11:25;94838.94;;;13.63;60.32
40946;BME280;55635;50.264;11.918;2023-03-23T02:14:06;94829.31;;;13.62;60.00
40946;BME280;55635;50.264;11.918;2023-03-23T02:20:17;94844.16;;;13.70;59.84
40946;BME280;55635;50.264;11.918;2023-03-23T02:27:01;94845.94;;;13.58;59.96
40946;BME280;55635;50.264;11.918;2023-03-23T02:30:06;94841.59;;;13.45;60.07
40946;BME280;55635;50.264;11.918;2023-03-23T02:33:32;94843.34;;;13.33;59.94
40946;BME280;55635;50.264;11.918;2023-03-23T02:36:50;94832.19;;;13.25;59.58
40946;BME280;55635;50.264;11.918;2023-03-23T02:39:49;94812.72;;;13.24;58.88
40946;BME280;55635;50.264;11.918;2023-03-23T02:42:33;94809.63;;;13.27;59.71
40946;BME280;55635;50.264;11.918;2023-03-23T02:45:17;94810.81;;;13.13;59.36
40946;BME280;55635;50.264;11.918;2023-03-23T02:48:03;94812.16;;;13.40;59.40
40946;BME280;55635;50.264;11.918;2023-03-23T02:50:49;94819.25;;;13.46;59.42
40946;BME280;55635;50.264;11.918;2023-03-23T02:53:34;94825.91;;;13.37;59.94
40946;BME280;55635;50.264;11.918;2023-03-23T02:56:19;94830.19;;;13.38;59.44
40946;BME280;55635;50.264;11.918;2023-03-23T02:59:02;94828.41;;;13.50;59.97
40946;BME280;55635;50.264;11.918;2023-03-23T03:01:52;94823.66;;;13.71;59.32
40946;BME280;55635;50.264;11.918;2023-03-23T03:04:39;94826.69;;;13.74;59.88
40946;BME280;55635;50.264;11.918;2023-03-23T03:14:11;94811.56;;;13.56;59.74
40946;BME280;55635;50.264;11.918;2023-03-23T03:17:10;94812.50;;;13.62;59.40
40946;BME280;55635;50.264;11.918;2023-03-23T03:19:59;94811.56;;;13.56;59.75
40946;BME280;55635;50.264;11.918;2023-03-23T03:22:47;94814.59;;;13.42;60.08
40946;BME280;55635;50.264;11.918;2023-03-23T03:25:29;94795.00;;;13.54;60.03
40946;BME280;55635;50.264;11.918;2023-03-23T03:28:11;94809.03;;;13.61;59.40
40946;BME280;55635;50.264;11.918;2023-03-23T03:31:02;94804.72;;;13.42;60.18
40946;BME280;55635;50.264;11.918;2023-03-23T03:33:45;94792.50;;;13.71;59.67
40946;BME280;55635;50.264;11.918;2023-03-23T03:36:33;94786.06;;;13.79;58.67
40946;BME280;55635;50.264;11.918;2023-03-23T03:39:19;94788.50;;;13.80;59.25
40946;BME280;55635;50.264;11.918;2023-03-23T03:42:01;94786.09;;;13.60;59.47
40946;BME280;55635;50.264;11.918;2023-03-23T03:44:42;94788.94;;;13.29;60.27
40946;BME280;55635;50.264;11.918;2023-03-23T03:47:23;94785.44;;;13.47;59.76
40946;BME280;55635;50.264;11.918;2023-03-23T03:50:08;94781.84;;;13.71;59.72
40946;BME280;55635;50.264;11.918;2023-03-23T03:53:07;94774.47;;;13.55;59.68
40946;BME280;55635;50.264;11.918;2023-03-23T03:55:48;94783.44;;;13.42;61.16
40946;BME280;55635;50.264;11.918;2023-03-23T03:58:31;94778.69;;;13.62;59.53
40946;BME280;55635;50.264;11.918;2023-03-23T04:01:47;94769.69;;;13.45;60.27
40946;BME280;55635;50.264;11.918;2023-03-23T04:04:28;94766.47;;;13.55;60.02
40946;BME280;55635;50.264;11.918;2023-03-23T04:07:09;94763.34;;;13.76;59.25
40946;BME280;55635;50.264;11.918;2023-03-23T04:09:52;94778.41;;;13.52;59.56
40946;BME280;55635;50.264;11.918;2023-03-23T04:12:36;94756.22;;;13.40;59.75
40946;BME280;55635;50.264;11.918;2023-03-23T04:15:35;94749.44;;;13.44;59.59
40946;BME280;55635;50.264;11.918;2023-03-23T04:18:18;94760.25;;;13.06;60.45
40946;BME280;55635;50.264;11.918;2023-03-23T04:21:03;94762.22;;;13.36;59.92
40946;BME280;55635;50.264;11.918;2023-03-23T04:23:44;94766.22;;;13.45;59.97
40946;BME280;55635;50.264;11.918;2023-03-23T04:26:28;94772.50;;;13.32;59.22
40946;BME280;55635;50.264;11.918;2023-03-23T04:29:14;94768.31;;;13.00;60.28
40946;BME280;55635;50.264;11.918;2023-03-23T04:32:14;94763.03;;;13.36;60.54
40946;BME280;55635;50.264;11.918;2023-03-23T04:35:01;94753.81;;;13.21;60.40
40946;BME280;55635;50.264;11.918;2023-03-23T04:37:52;94746.47;;;13.34;60.43
40946;BME280;55635;50.264;11.918;2023-03-23T04:40:40;94750.91;;;13.22;59.77
40946;BME280;55635;50.264;11.918;2023-03-23T04:43:31;94759.06;;;13.45;60.15
40946;BME280;55635;50.264;11.918;2023-03-23T04:46:20;94752.31;;;13.25;59.74
40946;BME280;55635;50.264;11.918;2023-03-23T04:49:02;94758.75;;;13.17;60.82
40946;BME280;55635;50.264;11.918;2023-03-23T04:51:48;94771.81;;;13.37;60.41
40946;BME280;55635;50.264;11.918;2023-03-23T04:54:39;94777.47;;;13.29;60.37
40946;BME280;55635;50.264;11.918;2023-03-23T04:57:20;94787.53;;;13.27;60.45
40946;BME280;55635;50.264;11.918;2023-03-23T05:00:21;94793.00;;;13.32;60.12
40946;BME280;55635;50.264;11.918;2023-03-23T05:03:06;94787.88;;;13.30;60.97
40946;BME280;55635;50.264;11.918;2023-03-23T05:05:48;94793.19;;;13.30;60.48
40946;BME280;55635;50.264;11.918;2023-03-23T05:08:33;94800.09;;;13.20;60.13
40946;BME280;55635;50.264;11.918;2023-03-23T05:11:14;94808.22;;;13.25;60.44
40946;BME280;55635;50.264;11.918;2023-03-23T05:13:57;94802.63;;;13.15;59.88
40946;BME280;55635;50.264;11.918;2023-03-23T05:16:38;94807.69;;;13.16;60.56
40946;BME280;55635;50.264;11.918;2023-03-23T05:19:22;94814.66;;;13.35;60.78
40946;BME280;55635;50.264;11.918;2023-03-23T05:22:07;94817.47;;;13.40;60.15
40946;BME280;55635;50.264;11.918;2023-03-23T05:25:00;94810.16;;;13.18;61.15
40946;BME280;55635;50.264;11.918;2023-03-23T05:27:45;94807.78;;;13.03;61.31
40946;BME280;55635;50.264;11.918;2023-03-23T05:30:51;94813.97;;;12.79;61.63
40946;BME280;55635;50.264;11.918;2023-03-23T05:33:33;94816.72;;;13.15;61.24
40946;BME280;55635;50.264;11.918;2023-03-23T05:36:25;94808.59;;;13.10;61.19
40946;BME280;55635;50.264;11.918;2023-03-23T05:39:33;94818.13;;;13.18;61.14
40946;BME280;55635;50.264;11.918;2023-03-23T05:42:28;94821.00;;;13.16;61.92
40946;BME280;55635;50.264;11.918;2023-03-23T05:45:29;94821.09;;;13.03;62.12
40946;BME280;55635;50.264;11.918;2023-03-23T05:48:10;94827.34;;;12.90;62.21
40946;BME280;55635;50.264;11.918;2023-03-23T05:50:52;94836.63;;;13.06;62.63
40946;BME280;55635;50.264;11.918;2023-03-23T05:53:36;94840.16;;;13.00;63.17
40946;BME280;55635;50.264;11.918;2023-03-23T05:56:18;94832.19;;;13.00;63.14
40946;BME280;55635;50.264;11.918;2023-03-23T05:59:18;94837.50;;;13.00;64.16
40946;BME280;55635;50.264;11.918;2023-03-23T06:02:03;94846.22;;;12.89;64.25
40946;BME280;55635;50.264;11.918;2023-03-23T06:04:45;94854.28;;;12.76;64.35
40946;BME280;55635;50.264;11.918;2023-03-23T06:07:32;94841.94;;;13.06;64.94
40946;BME280;55635;50.264;11.918;2023-03-23T06:10:17;94853.97;;;12.90;63.62
40946;BME280;55635;50.264;11.918;2023-03-23T06:13:06;94842.69;;;12.95;64.49
40946;BME280;55635;50.264;11.918;2023-03-23T06:15:55;94843.13;;;12.92;63.96
40946;BME280;55635;50.264;11.918;2023-03-23T06:19:02;94839.63;;;12.91;64.15
40946;BME280;55635;50.264;11.918;2023-03-23T06:21:55;94839.19;;;12.94;65.14
40946;BME280;55635;50.264;11.918;2023-03-23T06:25:02;94853.81;;;13.10;65.50
40946;BME280;55635;50.264;11.918;2023-03-23T06:27:50;94851.31;;;13.15;64.96
40946;BME280;55635;50.264;11.918;2023-03-23T06:30:32;94842.75;;;13.13;64.71
40946;BME280;55635;50.264;11.918;2023-03-23T06:33:13;94851.88;;;13.24;64.88
40946;BME280;55635;50.264;11.918;2023-03-23T06:36:13;94841.72;;;13.32;63.56
40946;BME280;55635;50.264;11.918;2023-03-23T06:39:17;94844.78;;;13.54;63.01
40946;BME280;55635;50.264;11.918;2023-03-23T06:42:11;94841.06;;;13.37;62.90
40946;BME280;55635;50.264;11.918;2023-03-23T06:44:55;94848.25;;;13.54;62.68
40946;BME280;55635;50.264;11.918;2023-03-23T06:47:39;94844.34;;;13.57;62.04
40946;BME280;55635;50.264;11.918;2023-03-23T06:50:20;94850.47;;;13.76;63.17
40946;BME280;55635;50.264;11.918;2023-03-23T06:53:02;94844.69;;;13.79;61.74
40946;BME280;55635;50.264;11.918;2023-03-23T06:55:44;94847.34;;;13.97;61.83
40946;BME280;55635;50.264;11.918;2023-03-23T06:58:25;94842.38;;;13.64;62.11
40946;BME280;55635;50.264;11.918;2023-03-23T07:01:08;94842.66;;;14.22;62.82
40946;BME280;55635;50.264;11.918;2023-03-23T07:03:55;94846.63;;;14.31;62.16
40946;BME280;55635;50.264;11.918;2023-03-23T07:06:45;94852.97;;;14.37;61.20
40946;BME280;55635;50.264;11.918;2023-03-23T07:09:28;94848.69;;;14.47;61.89
40946;BME280;55635;50.264;11.918;2023-03-23T07:12:08;94864.19;;;14.68;61.36
40946;BME280;55635;50.264;11.918;2023-03-23T07:14:56;94861.94;;;14.54;61.09
40946;BME280;55635;50.264;11.918;2023-03-23T07:17:38;94869.75;;;14.67;61.94
40946;BME280;55635;50.264;11.918;2023-03-23T07:20:28;94871.13;;;14.58;62.10
40946;BME280;55635;50.264;11.918;2023-03-23T07:23:09;94891.94;;;14.19;62.61
40946;BME280;55635;50.264;11.918;2023-03-23T07:25:57;94876.59;;;14.63;63.55
40946;BME280;55635;50.264;11.918;2023-03-23T07:28:45;94884.59;;;14.75;63.23
40946;BME280;55635;50.264;11.918;2023-03-23T07:31:49;94887.28;;;14.33;65.34
40946;BME280;55635;50.264;11.918;2023-03-23T07:34:32;94875.28;;;14.54;65.98
40946;BME280;55635;50.264;11.918;2023-03-23T07:37:24;94887.13;;;14.10;64.63
40946;BME280;55635;50.264;11.918;2023-03-23T07:40:06;94896.56;;;14.12;67.15
40946;BME280;55635;50.264;11.918;2023-03-23T07:42:57;94905.88;;;14.22;66.51
40946;BME280;55635;50.264;11.918;2023-03-23T07:45:49;94916.84;;;13.95;67.05
40946;BME280;55635;50.264;11.918;2023-03-23T07:48:32;94896.69;;;13.99;69.56
40946;BME280;55635;50.264;11.918;2023-03-23T07:51:13;94913.63;;;14.23;68.12
40946;BME280;55635;50.264;11.918;2023-03-23T07:54:02;94907.06;;;13.89;69.57
40946;BME280;55635;50.264;11.918;2023-03-23T07:57:05;94914.66;;;14.22;69.21
40946;BME280;55635;50.264;11.918;2023-03-23T07:59:51;94913.03;;;14.21;67.84
40946;BME280;55635;50.264;11.918;2023-03-23T08:02:32;94915.66;;;13.91;71.01
40946;BME280;55635;50.264;11.918;2023-03-23T08:05:45;94903.03;;;14.16;69.50
40946;BME280;55635;50.264;11.918;2023-03-23T08:08:43;94906.06;;;14.38;68.92
40946;BME280;55635;50.264;11.918;2023-03-23T08:11:47;94918.72;;;14.73;69.40
40946;BME280;55635;50.264;11.918;2023-03-23T08:14:47;94913.59;;;14.71;68.00
40946;BME280;55635;50.264;11.918;2023-03-23T08:18:04;94921.50;;;14.78;68.97
40946;BME280;55635;50.264;11.918;2023-03-23T08:21:06;94915.09;;;14.55;70.14
40946;BME280;55635;50.264;11.918;2023-03-23T08:24:09;94928.44;;;14.19;71.96
40946;BME280;55635;50.264;11.918;2023-03-23T08:27:09;94920.31;;;14.14;72.55
40946;BME280;55635;50.264;11.918;2023-03-23T08:30:11;94922.97;;;14.14;72.61
40946;BME280;55635;50.264;11.918;2023-03-23T08:33:09;94934.88;;;14.30;72.32
40946;BME280;55635;50.264;11.918;2023-03-23T08:36:16;94930.53;;;14.17;73.75
40946;BME280;55635;50.264;11.918;2023-03-23T08:39:28;94930.59;;;13.74;75.02
40946;BME280;55635;50.264;11.918;2023-03-23T08:42:14;94914.41;;;13.94;74.55
40946;BME280;55635;50.264;11.918;2023-03-23T08:45:10;94921.97;;;13.79;75.40
40946;BME280;55635;50.264;11.918;2023-03-23T08:48:05;94929.66;;;13.87;75.40
40946;BME280;55635;50.264;11.918;2023-03-23T08:50:49;94927.09;;;13.55;76.35
40946;BME280;55635;50.264;11.918;2023-03-23T08:53:36;94920.28;;;13.41;76.19
40946;BME280;55635;50.264;11.918;2023-03-23T08:56:53;94928.94;;;13.37;77.08
40946;BME280;55635;50.264;11.918;2023-03-23T08:59:38;94927.66;;;13.39;76.82
40946;BME280;55635;50.264;11.918;2023-03-23T09:02:33;94931.03;;;13.53;76.86
40946;BME280;55635;50.264;11.918;2023-03-23T09:05:35;94923.88;;;13.29;77.94
40946;BME280;55635;50.264;11.918;2023-03-23T09:08:30;94920.75;;;13.14;76.84
40946;BME280;55635;50.264;11.918;2023-03-23T09:11:12;94930.97;;;13.59;76.64
40946;BME280;55635;50.264;11.918;2023-03-23T09:13:53;94940.97;;;13.39;78.12
40946;BME280;55635;50.264;11.918;2023-03-23T09:16:34;94935.69;;;13.15;78.88
40946;BME280;55635;50.264;11.918;2023-03-23T09:19:15;94927.88;;;13.20;78.08
40946;BME280;55635;50.264;11.918;2023-03-23T09:21:56;94936.75;;;13.32;77.89
40946;BME280;55635;50.264;11.918;2023-03-23T09:24:37;94939.47;;;13.25;78.51
40946;BME280;55635;50.264;11.918;2023-03-23T09:27:18;94928.94;;;13.55;78.72
40946;BME280;55635;50.264;11.918;2023-03-23T09:29:59;94938.44;;;13.51;77.27
40946;BME280;55635;50.264;11.918;2023-03-23T09:32:41;94931.75;;;13.42;78.23
40946;BME280;55635;50.264;11.918;2023-03-23T09:35:24;94933.56;;;13.23;76.39
40946;BME280;55635;50.264;11.918;2023-03-23T09:38:06;94945.03;;;13.24;77.27
40946;BME280;55635;50.264;11.918;2023-03-23T09:40:53;94926.38;;;13.48;77.18
40946;BME280;55635;50.264;11.918;2023-03-23T09:50:07;94944.13;;;13.12;77.46
40946;BME280;55635;50.264;11.918;2023-03-23T09:53:28;94956.72;;;13.23;76.16
40946;BME280;55635;50.264;11.918;2023-03-23T09:56:16;94942.13;;;13.50;75.32
40946;BME280;55635;50.264;11.918;2023-03-23T10:02:14;94950.22;;;13.80;75.61
40946;BME280;55635;50.264;11.918;2023-03-23T10:05:07;94948.75;;;13.66;75.40
40946;BME280;55635;50.264;11.918;2023-03-23T10:07:53;94946.72;;;13.61;74.82
40946;BME280;55635;50.264;11.918;2023-03-23T10:10:57;94949.19;;;13.99;74.42
40946;BME280;55635;50.264;11.918;2023-03-23T10:14:17;94942.66;;;13.95;75.40
40946;BME280;55635;50.264;11.918;2023-03-23T10:17:26;94959.56;;;13.46;73.86
40946;BME280;55635;50.264;11.918;2023-03-23T10:35:06;94955.38;;;13.56;74.25
40946;BME280;55635;50.264;11.918;2023-03-23T10:37:55;94958.38;;;13.85;72.78
40946;BME280;55635;50.264;11.918;2023-03-23T10:40:52;94951.53;;;13.71;73.00
40946;BME280;55635;50.264;11.918;2023-03-23T10:43:34;94949.47;;;13.54;74.33
40946;BME280;55635;50.264;11.918;2023-03-23T10:49:08;94946.59;;;13.74;75.30
40946;BME280;55635;50.264;11.918;2023-03-23T10:55:08;94960.38;;;13.89;71.58
40946;BME280;55635;50.264;11.918;2023-03-23T10:58:11;94959.16;;;13.85;74.66
40946;BME280;55635;50.264;11.918;2023-03-23T11:00:52;94956.44;;;14.10;73.09
40946;BME280;55635;50.264;11.918;2023-03-23T11:03:45;94971.97;;;14.31;73.25
40946;BME280;55635;50.264;11.918;2023-03-23T11:06:33;94967.47;;;13.95;74.30
40946;BME280;55635;50.264;11.918;2023-03-23T11:09:32;94974.13;;;14.23;73.75
40946;BME280;55635;50.264;11.918;2023-03-23T11:12:21;94961.06;;;14.39;74.12
40946;BME280;55635;50.264;11.918;2023-03-23T11:15:32;94961.47;;;14.54;74.08
40946;BME280;55635;50.264;11.918;2023-03-23T11:18:27;94947.50;;;14.70;70.79
40946;BME280;55635;50.264;11.918;2023-03-23T11:21:16;94961.19;;;14.44;70.41
40946;BME280;55635;50.264;11.918;2023-03-23T11:23:59;94961.81;;;14.88;72.21
40946;BME280;55635;50.264;11.918;2023-03-23T11:26:44;94950.78;;;14.54;72.33
40946;BME280;55635;50.264;11.918;2023-03-23T11:29:27;94956.09;;;14.06;71.91
40946;BME280;55635;50.264;11.918;2023-03-23T11:32:12;94947.56;;;13.98;75.34
40946;BME280;55635;50.264;11.918;2023-03-23T11:35:03;94953.94;;;13.79;76.72
40946;BME280;55635;50.264;11.918;2023-03-23T11:37:54;94951.72;;;13.94;76.54
40946;BME280;55635;50.264;11.918;2023-03-23T11:40:48;94955.47;;;14.04;76.64
40946;BME280;55635;50.264;11.918;2023-03-23T11:43:29;94962.66;;;13.86;75.03
40946;BME280;55635;50.264;11.918;2023-03-23T11:49:08;94953.88;;;14.22;76.04
40946;BME280;55635;50.264;11.918;2023-03-23T11:52:00;94956.44;;;14.10;74.84
40946;BME280;55635;50.264;11.918;2023-03-23T11:54:55;94961.63;;;14.23;75.39
40946;BME280;55635;50.264;11.918;2023-03-23T11:57:37;94954.59;;;14.10;74.52
40946;BME280;55635;50.264;11.918;2023-03-23T12:00:21;94956.16;;;14.18;75.92
40946;BME280;55635;50.264;11.918;2023-03-23T12:10:30;94935.22;;;15.34;70.72
40946;BME280;55635;50.264;11.918;2023-03-23T12:13:03;94947.38;;;14.77;72.68
40946;BME280;55635;50.264;11.918;2023-03-23T12:43:55;94968.28;;;15.21;68.27
40946;BME280;55635;50.264;11.918;2023-03-23T12:47:07;94967.94;;;15.18;68.88
40946;BME280;55635;50.264;11.918;2023-03-23T12:50:20;94956.31;;;15.12;67.32
40946;BME280;55635;50.264;11.918;2023-03-23T12:53:26;94958.53;;;15.27;68.06
40946;BME280;55635;50.264;11.918;2023-03-23T12:57:09;94971.78;;;15.22;68.86
40946;BME280;55635;50.264;11.918;2023-03-23T13:00:21;94972.31;;;15.01;70.92
40946;BME280;55635;50.264;11.918;2023-03-23T13:03:23;94959.41;;;14.38;73.24
40946;BME280;55635;50.264;11.918;2023-03-23T13:06:33;94965.38;;;14.70;70.43
40946;BME280;55635;50.264;11.918;2023-03-23T13:12:25;94946.47;;;14.83;70.72
40946;BME280;55635;50.264;11.918;2023-03-23T13:15:19;94950.00;;;14.65;72.79
40946;BME280;55635;50.264;11.918;2023-03-23T13:18:37;94947.22;;;14.60;71.88
40946;BME280;55635;50.264;11.918;2023-03-23T13:21:32;94942.41;;;14.81;70.52
40946;BME280;55635;50.264;11.918;2023-03-23T13:24:20;94940.66;;;15.16;69.12
40946;BME280;55635;50.264;11.918;2023-03-23T13:27:04;94943.63;;;15.08;68.52
40946;BME280;55635;50.264;11.918;2023-03-23T13:29:46;94937.72;;;15.17;69.44
40946;BME280;55635;50.264;11.918;2023-03-23T13:32:39;94934.72;;;15.14;68.86
40946;BME280;55635;50.264;11.918;2023-03-23T13:35:21;94932.25;;;15.01;68.99
40946;BME280;55635;50.264;11.918;2023-03-23T13:38:46;94934.84;;;15.31;68.59
40946;BME280;55635;50.264;11.918;2023-03-23T13:41:20;94928.22;;;15.10;68.19
40946;BME280;55635;50.264;11.918;2023-03-23T13:44:23;94936.44;;;14.97;69.43
40946;BME280;55635;50.264;11.918;2023-03-23T13:50:26;94925.09;;;14.71;70.58
40946;BME280;55635;50.264;11.918;2023-03-23T13:53:31;94909.44;;;15.16;68.69
40946;BME280;55635;50.264;11.918;2023-03-23T13:56:54;94911.59;;;14.96;71.40
40946;BME280;55635;50.264;11.918;2023-03-23T13:59:55;94904.44;;;14.37;72.92
40946;BME280;55635;50.264;11.918;2023-03-23T14:02:39;94913.81;;;14.58;71.30
40946;BME280;55635;50.264;11.918;2023-03-23T14:05:35;94905.50;;;14.18;73.06
40946;BME280;55635;50.264;11.918;2023-03-23T14:11:26;94895.84;;;14.35;73.78
40946;BME280;55635;50.264;11.918;2023-03-23T14:14:27;94903.53;;;13.77;75.09
40946;BME280;55635;50.264;11.918;2023-03-23T14:20:06;94897.00;;;13.73;76.20
40946;BME280;55635;50.264;11.918;2023-03-23T14:22:55;94896.78;;;13.93;75.58
40946;BME280;55635;50.264;11.918;2023-03-23T14:25:36;94856.38;;;13.59;75.21
40946;BME280;55635;50.264;11.918;2023-03-23T14:28:19;94903.22;;;14.03;75.15
40946;BME280;55635;50.264;11.918;2023-03-23T14:31:02;94893.44;;;14.34;74.33
40946;BME280;55635;50.264;11.918;2023-03-23T14:33:43;94886.78;;;14.54;73.06
40946;BME280;55635;50.264;11.918;2023-03-23T14:36:28;94888.28;;;14.32;73.23
40946;BME280;55635;50.264;11.918;2023-03-23T14:42:13;94897.59;;;13.57;75.59
40946;BME280;55635;50.264;11.918;2023-03-23T14:44:56;94902.41;;;14.03;74.48
40946;BME280;55635;50.264;11.918;2023-03-23T14:47:56;94875.94;;;14.19;73.39
40946;BME280;55635;50.264;11.918;2023-03-23T14:50:41;94908.34;;;13.87;75.43
40946;BME280;55635;50.264;11.918;2023-03-23T14:53:40;94922.19;;;14.25;74.64
40946;BME280;55635;50.264;11.918;2023-03-23T14:56:23;94918.97;;;14.05;74.54
40946;BME280;55635;50.264;11.918;2023-03-23T14:59:12;94891.00;;;13.78;75.89
40946;BME280;55635;50.264;11.918;2023-03-23T15:01:53;94897.69;;;13.69;76.31
40946;BME280;55635;50.264;11.918;2023-03-23T15:04:34;94868.38;;;13.69;76.54
40946;BME280;55635;50.264;11.918;2023-03-23T15:07:15;94885.44;;;13.79;76.75
40946;BME280;55635;50.264;11.918;2023-03-23T15:09:58;94884.09;;;13.88;75.43
40946;BME280;55635;50.264;11.918;2023-03-23T15:12:39;94886.72;;;13.77;76.69
40946;BME280;55635;50.264;11.918;2023-03-23T15:15:30;94900.78;;;14.02;75.82
40946;BME280;55635;50.264;11.918;2023-03-23T15:18:37;94893.94;;;14.24;74.16
40946;BME280;55635;50.264;11.918;2023-03-23T15:24:37;94905.31;;;14.49;73.34
40946;BME280;55635;50.264;11.918;2023-03-23T15:27:28;94903.44;;;14.80;72.03
40946;BME280;55635;50.264;11.918;2023-03-23T15:30:31;94914.31;;;14.78;72.35
40946;BME280;55635;50.264;11.918;2023-03-23T15:33:13;94909.34;;;14.82;71.71
40946;BME280;55635;50.264;11.918;2023-03-23T15:35:56;94910.59;;;14.67;71.14
40946;BME280;55635;50.264;11.918;2023-03-23T15:38:37;94918.72;;;14.73;70.60
40946;BME280;55635;50.264;11.918;2023-03-23T15:41:28;94917.91;;;14.72;70.27
40946;BME280;55635;50.264;11.918;2023-03-23T15:44:20;94914.56;;;14.77;70.47
40946;BME280;55635;50.264;11.918;2023-03-23T15:47:16;94916.91;;;14.96;70.00
40946;BME280;55635;50.264;11.918;2023-03-23T15:50:16;94918.41;;;14.92;69.64
40946;BME280;55635;50.264;11.918;2023-03-23T15:52:57;94914.66;;;14.40;71.92
40946;BME280;55635;50.264;11.918;2023-03-23T15:55:38;94923.41;;;14.59;71.10
40946;BME280;55635;50.264;11.918;2023-03-23T15:58:19;94926.34;;;14.57;71.11
40946;BME280;55635;50.264;11.918;2023-03-23T16:01:06;94935.41;;;14.38;71.13
40946;BME280;55635;50.264;11.918;2023-03-23T16:04:16;94922.72;;;14.52;70.87
40946;BME280;55635;50.264;11.918;2023-03-23T16:06:57;94914.69;;;14.82;68.77
40946;BME280;55635;50.264;11.918;2023-03-23T16:09:39;94932.19;;;14.78;69.93
40946;BME280;55635;50.264;11.918;2023-03-23T16:12:24;94921.06;;;14.81;69.65
40946;BME280;55635;50.264;11.918;2023-03-23T16:15:05;94917.84;;;14.49;70.71
40946;BME280;55635;50.264;11.918;2023-03-23T16:17:48;94929.31;;;14.49;71.54
40946;BME280;55635;50.264;11.918;2023-03-23T16:20:30;94935.97;;;14.22;71.79
40946;BME280;55635;50.264;11.918;2023-03-23T16:23:12;94928.72;;;14.47;71.83
40946;BME280;55635;50.264;11.918;2023-03-23T16:25:53;94923.63;;;14.46;71.40
40946;BME280;55635;50.264;11.918;2023-03-23T16:28:34;94940.41;;;14.46;72.12
40946;BME280;55635;50.264;11.918;2023-03-23T16:31:15;94935.72;;;13.94;73.27